Pays
Station

 

Conditions  météo  pour  Lovelock, Derby Field  -  Etats-Unis    Etats-Unis

  
21 °C
    
 
 

METAR pour Lovelock, Derby Field :

KLOL 212253Z AUTO VRB03KT 10SM CLR 21/M07 A3001 RMK AO2 SLP152 T02111072

 

Voici le bulletin pour Lovelock, Derby Field - Etats-Unis.
 
Le bulletin a été fait il y a 54 minutes, à 22:53 UTC .
Le vent soufflait à la vitesse de 1.5 mètres par seconde de direction variable.
 
La température était de 21 °C, avec un point de rosée à -7 °C.
La pression atmosphérique était de 1016 hPa.
L'humidité relative était de 14.5%.
 
Le ciel était clair.
 
La visibilité globale était de 16.1 kilomètres.
 

 
 
 

Pays :   A   B   C   D   E   F   G   H   I   J   K   L   M   N   O   P   Q   R   S   T   U   V   W   Y   Z

 

Partenaires :  Info Météo avec Met'info
Météo Marine avec MeteoMarine.net
Infos Site  |  Infos Légales  |  Crédits  |  Confidentialité
Contactez-nous  |  Ajouter aux favoris
© 2013-2018 METAR - Tous droits réservés